sensor_id;sensor_type;location;lat;lon;timestamp;temperature;humidity
26537;DHT22;14204;51.262;5.488;2023-03-13T00:01:45;11.50;99.90
26537;DHT22;14204;51.262;5.488;2023-03-13T00:04:11;11.50;99.90
26537;DHT22;14204;51.262;5.488;2023-03-13T00:06:39;11.60;99.90
26537;DHT22;14204;51.262;5.488;2023-03-13T00:09:08;11.60;99.90
26537;DHT22;14204;51.262;5.488;2023-03-13T00:11:34;11.70;99.90
26537;DHT22;14204;51.262;5.488;2023-03-13T00:14:01;11.60;99.90
26537;DHT22;14204;51.262;5.488;2023-03-13T00:16:27;11.60;99.90
26537;DHT22;14204;51.262;5.488;2023-03-13T00:18:54;11.60;99.90
26537;DHT22;14204;51.262;5.488;2023-03-13T00:21:23;11.70;99.90
26537;DHT22;14204;51.262;5.488;2023-03-13T00:23:49;11.70;99.90
26537;DHT22;14204;51.262;5.488;2023-03-13T00:26:18;11.60;99.90
26537;DHT22;14204;51.262;5.488;2023-03-13T00:28:44;11.60;99.90
26537;DHT22;14204;51.262;5.488;2023-03-13T00:31:13;11.50;99.90
26537;DHT22;14204;51.262;5.488;2023-03-13T00:33:41;11.50;99.90
26537;DHT22;14204;51.262;5.488;2023-03-13T00:36:09;11.50;99.90
26537;DHT22;14204;51.262;5.488;2023-03-13T00:38:35;11.50;99.90
26537;DHT22;14204;51.262;5.488;2023-03-13T00:41:07;11.60;99.90
26537;DHT22;14204;51.262;5.488;2023-03-13T00:43:33;11.60;99.90
26537;DHT22;14204;51.262;5.488;2023-03-13T00:45:59;11.50;99.90
26537;DHT22;14204;51.262;5.488;2023-03-13T00:48:25;11.50;99.90
26537;DHT22;14204;51.262;5.488;2023-03-13T00:50:51;11.50;99.90
26537;DHT22;14204;51.262;5.488;2023-03-13T00:53:17;11.50;99.90
26537;DHT22;14204;51.262;5.488;2023-03-13T00:55:56;11.60;99.90
26537;DHT22;14204;51.262;5.488;2023-03-13T00:58:22;11.50;99.90
26537;DHT22;14204;51.262;5.488;2023-03-13T01:00:49;11.60;99.90
26537;DHT22;14204;51.262;5.488;2023-03-13T01:03:15;11.60;99.90
26537;DHT22;14204;51.262;5.488;2023-03-13T01:05:40;11.60;99.90
26537;DHT22;14204;51.262;5.488;2023-03-13T01:08:06;11.60;99.90
26537;DHT22;14204;51.262;5.488;2023-03-13T01:10:32;11.70;99.90
26537;DHT22;14204;51.262;5.488;2023-03-13T01:12:57;11.70;99.90
26537;DHT22;14204;51.262;5.488;2023-03-13T01:15:23;11.70;99.90
26537;DHT22;14204;51.262;5.488;2023-03-13T01:17:49;11.70;99.90
26537;DHT22;14204;51.262;5.488;2023-03-13T01:20:15;11.70;99.90
26537;DHT22;14204;51.262;5.488;2023-03-13T01:22:40;11.70;99.90
26537;DHT22;14204;51.262;5.488;2023-03-13T01:25:07;11.70;99.90
26537;DHT22;14204;51.262;5.488;2023-03-13T01:27:33;11.70;99.90
26537;DHT22;14204;51.262;5.488;2023-03-13T01:29:58;11.70;99.90
26537;DHT22;14204;51.262;5.488;2023-03-13T01:32:24;11.70;99.90
26537;DHT22;14204;51.262;5.488;2023-03-13T01:34:50;11.70;99.90
26537;DHT22;14204;51.262;5.488;2023-03-13T01:37:16;11.70;99.90
26537;DHT22;14204;51.262;5.488;2023-03-13T01:39:41;11.70;99.90
26537;DHT22;14204;51.262;5.488;2023-03-13T01:42:07;11.70;99.90
26537;DHT22;14204;51.262;5.488;2023-03-13T01:44:54;11.70;99.90
26537;DHT22;14204;51.262;5.488;2023-03-13T01:47:20;11.70;99.90
26537;DHT22;14204;51.262;5.488;2023-03-13T01:49:46;11.70;99.90
26537;DHT22;14204;51.262;5.488;2023-03-13T01:52:16;11.80;99.90
26537;DHT22;14204;51.262;5.488;2023-03-13T01:54:59;11.80;99.90
26537;DHT22;14204;51.262;5.488;2023-03-13T01:57:43;11.80;99.90
26537;DHT22;14204;51.262;5.488;2023-03-13T02:00:25;11.80;99.90
26537;DHT22;14204;51.262;5.488;2023-03-13T02:02:54;11.80;99.90
26537;DHT22;14204;51.262;5.488;2023-03-13T02:05:24;11.70;99.90
26537;DHT22;14204;51.262;5.488;2023-03-13T02:08:09;11.70;99.90
26537;DHT22;14204;51.262;5.488;2023-03-13T02:10:43;11.80;99.90
26537;DHT22;14204;51.262;5.488;2023-03-13T02:13:14;11.80;99.90
26537;DHT22;14204;51.262;5.488;2023-03-13T02:15:41;11.80;99.90
26537;DHT22;14204;51.262;5.488;2023-03-13T02:18:07;11.80;99.90
26537;DHT22;14204;51.262;5.488;2023-03-13T02:20:33;11.90;99.90
26537;DHT22;14204;51.262;5.488;2023-03-13T02:23:04;11.90;99.90
26537;DHT22;14204;51.262;5.488;2023-03-13T02:25:41;11.90;99.90
26537;DHT22;14204;51.262;5.488;2023-03-13T02:28:18;12.00;99.90
26537;DHT22;14204;51.262;5.488;2023-03-13T02:30:46;11.90;99.90
26537;DHT22;14204;51.262;5.488;2023-03-13T02:33:14;12.00;99.90
26537;DHT22;14204;51.262;5.488;2023-03-13T02:35:41;12.00;99.90
26537;DHT22;14204;51.262;5.488;2023-03-13T02:38:10;12.00;99.90
26537;DHT22;14204;51.262;5.488;2023-03-13T02:40:39;12.00;99.90
26537;DHT22;14204;51.262;5.488;2023-03-13T02:43:20;12.10;99.90
26537;DHT22;14204;51.262;5.488;2023-03-13T02:46:15;12.10;99.90
26537;DHT22;14204;51.262;5.488;2023-03-13T02:48:47;12.00;99.90
26537;DHT22;14204;51.262;5.488;2023-03-13T02:51:21;12.00;99.90
26537;DHT22;14204;51.262;5.488;2023-03-13T02:53:50;12.10;99.90
26537;DHT22;14204;51.262;5.488;2023-03-13T02:56:19;12.10;99.90
26537;DHT22;14204;51.262;5.488;2023-03-13T02:58:46;12.10;99.90
26537;DHT22;14204;51.262;5.488;2023-03-13T03:01:12;12.20;99.90
26537;DHT22;14204;51.262;5.488;2023-03-13T03:03:37;12.20;99.90
26537;DHT22;14204;51.262;5.488;2023-03-13T03:06:04;12.10;99.90
26537;DHT22;14204;51.262;5.488;2023-03-13T03:08:31;12.20;99.90
26537;DHT22;14204;51.262;5.488;2023-03-13T03:10:57;12.20;99.90
26537;DHT22;14204;51.262;5.488;2023-03-13T03:13:23;12.30;99.90
26537;DHT22;14204;51.262;5.488;2023-03-13T03:15:49;12.20;99.90
26537;DHT22;14204;51.262;5.488;2023-03-13T03:18:15;12.30;99.90
26537;DHT22;14204;51.262;5.488;2023-03-13T03:20:40;12.30;99.90
26537;DHT22;14204;51.262;5.488;2023-03-13T03:23:06;12.30;99.90
26537;DHT22;14204;51.262;5.488;2023-03-13T03:25:31;12.40;99.90
26537;DHT22;14204;51.262;5.488;2023-03-13T03:27:57;12.40;99.90
26537;DHT22;14204;51.262;5.488;2023-03-13T03:30:23;12.40;99.90
26537;DHT22;14204;51.262;5.488;2023-03-13T03:32:49;12.40;99.90
26537;DHT22;14204;51.262;5.488;2023-03-13T03:35:14;12.50;99.90
26537;DHT22;14204;51.262;5.488;2023-03-13T03:37:40;12.50;99.90
26537;DHT22;14204;51.262;5.488;2023-03-13T03:40:06;12.50;99.90
26537;DHT22;14204;51.262;5.488;2023-03-13T03:42:32;12.40;99.90
26537;DHT22;14204;51.262;5.488;2023-03-13T03:44:58;12.50;99.90
26537;DHT22;14204;51.262;5.488;2023-03-13T03:47:24;12.50;99.90
26537;DHT22;14204;51.262;5.488;2023-03-13T03:49:49;12.50;99.90
26537;DHT22;14204;51.262;5.488;2023-03-13T03:52:15;12.60;99.90
26537;DHT22;14204;51.262;5.488;2023-03-13T03:54:41;12.60;99.90
26537;DHT22;14204;51.262;5.488;2023-03-13T03:57:07;12.60;99.90
26537;DHT22;14204;51.262;5.488;2023-03-13T03:59:33;12.70;99.90
26537;DHT22;14204;51.262;5.488;2023-03-13T04:01:58;12.60;99.90
26537;DHT22;14204;51.262;5.488;2023-03-13T04:04:24;12.70;99.90
26537;DHT22;14204;51.262;5.488;2023-03-13T04:06:50;12.70;99.90
26537;DHT22;14204;51.262;5.488;2023-03-13T04:09:16;12.80;99.90
26537;DHT22;14204;51.262;5.488;2023-03-13T04:11:41;12.80;99.90
26537;DHT22;14204;51.262;5.488;2023-03-13T04:14:07;12.80;99.90
26537;DHT22;14204;51.262;5.488;2023-03-13T04:16:33;12.80;99.90
26537;DHT22;14204;51.262;5.488;2023-03-13T04:18:58;12.80;99.90
26537;DHT22;14204;51.262;5.488;2023-03-13T04:21:24;12.90;99.90
26537;DHT22;14204;51.262;5.488;2023-03-13T04:23:50;12.90;99.90
26537;DHT22;14204;51.262;5.488;2023-03-13T04:26:15;12.90;99.90
26537;DHT22;14204;51.262;5.488;2023-03-13T04:28:41;13.00;99.90
26537;DHT22;14204;51.262;5.488;2023-03-13T04:31:07;13.10;99.90
26537;DHT22;14204;51.262;5.488;2023-03-13T04:33:32;13.00;99.90
26537;DHT22;14204;51.262;5.488;2023-03-13T04:35:58;13.00;99.90
26537;DHT22;14204;51.262;5.488;2023-03-13T04:38:24;13.00;99.90
26537;DHT22;14204;51.262;5.488;2023-03-13T04:40:49;13.10;99.90
26537;DHT22;14204;51.262;5.488;2023-03-13T04:43:15;13.00;99.90
26537;DHT22;14204;51.262;5.488;2023-03-13T04:45:41;13.00;99.90
26537;DHT22;14204;51.262;5.488;2023-03-13T04:48:06;13.00;99.90
26537;DHT22;14204;51.262;5.488;2023-03-13T04:50:32;13.10;99.90
26537;DHT22;14204;51.262;5.488;2023-03-13T04:52:58;13.20;99.90
26537;DHT22;14204;51.262;5.488;2023-03-13T04:55:23;13.10;99.90
26537;DHT22;14204;51.262;5.488;2023-03-13T04:57:49;13.20;99.90
26537;DHT22;14204;51.262;5.488;2023-03-13T05:00:15;13.10;99.90
26537;DHT22;14204;51.262;5.488;2023-03-13T05:02:40;13.10;99.90
26537;DHT22;14204;51.262;5.488;2023-03-13T05:05:06;13.20;99.90
26537;DHT22;14204;51.262;5.488;2023-03-13T05:07:32;13.20;99.90
26537;DHT22;14204;51.262;5.488;2023-03-13T05:09:57;13.20;99.90
26537;DHT22;14204;51.262;5.488;2023-03-13T05:12:23;13.20;99.90
26537;DHT22;14204;51.262;5.488;2023-03-13T05:14:49;13.20;99.90
26537;DHT22;14204;51.262;5.488;2023-03-13T05:17:15;13.20;99.90
26537;DHT22;14204;51.262;5.488;2023-03-13T05:19:42;13.30;99.90
26537;DHT22;14204;51.262;5.488;2023-03-13T05:22:08;13.30;99.90
26537;DHT22;14204;51.262;5.488;2023-03-13T05:24:33;13.30;99.90
26537;DHT22;14204;51.262;5.488;2023-03-13T05:26:59;13.30;99.90
26537;DHT22;14204;51.262;5.488;2023-03-13T05:29:25;13.40;99.90
26537;DHT22;14204;51.262;5.488;2023-03-13T05:31:51;13.40;99.90
26537;DHT22;14204;51.262;5.488;2023-03-13T05:34:17;13.40;99.90
26537;DHT22;14204;51.262;5.488;2023-03-13T05:36:42;13.40;99.90
26537;DHT22;14204;51.262;5.488;2023-03-13T05:39:08;13.40;99.90
26537;DHT22;14204;51.262;5.488;2023-03-13T05:41:34;13.40;99.90
26537;DHT22;14204;51.262;5.488;2023-03-13T05:43:59;13.40;99.90
26537;DHT22;14204;51.262;5.488;2023-03-13T05:46:25;13.40;99.90
26537;DHT22;14204;51.262;5.488;2023-03-13T05:48:51;13.40;99.90
26537;DHT22;14204;51.262;5.488;2023-03-13T05:51:17;13.40;99.90
26537;DHT22;14204;51.262;5.488;2023-03-13T05:53:43;13.40;99.90
26537;DHT22;14204;51.262;5.488;2023-03-13T05:56:09;13.40;99.90
26537;DHT22;14204;51.262;5.488;2023-03-13T05:58:35;13.40;99.90
26537;DHT22;14204;51.262;5.488;2023-03-13T06:01:11;13.30;99.90
26537;DHT22;14204;51.262;5.488;2023-03-13T06:03:37;13.40;99.90
26537;DHT22;14204;51.262;5.488;2023-03-13T06:06:03;13.40;99.90
26537;DHT22;14204;51.262;5.488;2023-03-13T06:08:29;13.50;99.90
26537;DHT22;14204;51.262;5.488;2023-03-13T06:10:58;13.50;99.90
26537;DHT22;14204;51.262;5.488;2023-03-13T06:13:25;13.50;99.90
26537;DHT22;14204;51.262;5.488;2023-03-13T06:15:55;13.50;99.90
26537;DHT22;14204;51.262;5.488;2023-03-13T06:18:21;13.50;99.90
26537;DHT22;14204;51.262;5.488;2023-03-13T06:20:48;13.60;99.90
26537;DHT22;14204;51.262;5.488;2023-03-13T06:23:14;13.60;99.90
26537;DHT22;14204;51.262;5.488;2023-03-13T06:25:40;13.50;99.90
26537;DHT22;14204;51.262;5.488;2023-03-13T06:28:06;13.60;99.90
26537;DHT22;14204;51.262;5.488;2023-03-13T06:30:31;13.60;99.90
26537;DHT22;14204;51.262;5.488;2023-03-13T06:32:57;13.60;99.90
26537;DHT22;14204;51.262;5.488;2023-03-13T06:35:23;13.60;99.90
26537;DHT22;14204;51.262;5.488;2023-03-13T06:37:49;13.60;99.90
26537;DHT22;14204;51.262;5.488;2023-03-13T06:40:14;13.60;99.90
26537;DHT22;14204;51.262;5.488;2023-03-13T06:42:40;13.70;99.90
26537;DHT22;14204;51.262;5.488;2023-03-13T06:45:07;13.70;99.90
26537;DHT22;14204;51.262;5.488;2023-03-13T06:47:32;13.70;99.90
26537;DHT22;14204;51.262;5.488;2023-03-13T06:49:58;13.80;99.90
26537;DHT22;14204;51.262;5.488;2023-03-13T06:52:24;13.70;99.90
26537;DHT22;14204;51.262;5.488;2023-03-13T06:54:50;13.70;99.90
26537;DHT22;14204;51.262;5.488;2023-03-13T06:57:15;13.70;99.90
26537;DHT22;14204;51.262;5.488;2023-03-13T06:59:41;13.70;99.90
26537;DHT22;14204;51.262;5.488;2023-03-13T07:02:10;13.80;99.90
26537;DHT22;14204;51.262;5.488;2023-03-13T07:04:36;13.80;99.90
26537;DHT22;14204;51.262;5.488;2023-03-13T07:07:01;13.70;99.90
26537;DHT22;14204;51.262;5.488;2023-03-13T07:09:27;13.70;99.90
26537;DHT22;14204;51.262;5.488;2023-03-13T07:11:53;13.70;99.90
26537;DHT22;14204;51.262;5.488;2023-03-13T07:14:19;13.80;99.90
26537;DHT22;14204;51.262;5.488;2023-03-13T07:16:45;13.80;99.90
26537;DHT22;14204;51.262;5.488;2023-03-13T07:19:11;13.80;99.90
26537;DHT22;14204;51.262;5.488;2023-03-13T07:21:36;13.80;99.90
26537;DHT22;14204;51.262;5.488;2023-03-13T07:24:02;13.90;99.90
26537;DHT22;14204;51.262;5.488;2023-03-13T07:26:28;13.90;99.90
26537;DHT22;14204;51.262;5.488;2023-03-13T07:28:54;13.90;99.90
26537;DHT22;14204;51.262;5.488;2023-03-13T07:31:20;13.90;99.90
26537;DHT22;14204;51.262;5.488;2023-03-13T07:33:48;13.90;99.90
26537;DHT22;14204;51.262;5.488;2023-03-13T07:36:16;13.90;99.90
26537;DHT22;14204;51.262;5.488;2023-03-13T07:38:42;14.00;99.90
26537;DHT22;14204;51.262;5.488;2023-03-13T07:41:11;14.00;99.90
26537;DHT22;14204;51.262;5.488;2023-03-13T07:43:41;14.00;99.90
26537;DHT22;14204;51.262;5.488;2023-03-13T07:46:09;14.00;99.90
26537;DHT22;14204;51.262;5.488;2023-03-13T07:48:40;14.00;99.90
26537;DHT22;14204;51.262;5.488;2023-03-13T07:51:09;14.00;99.90
26537;DHT22;14204;51.262;5.488;2023-03-13T07:53:35;14.10;99.90
26537;DHT22;14204;51.262;5.488;2023-03-13T07:56:06;14.10;99.90
26537;DHT22;14204;51.262;5.488;2023-03-13T07:58:34;14.20;99.90
26537;DHT22;14204;51.262;5.488;2023-03-13T08:01:06;14.10;99.90
26537;DHT22;14204;51.262;5.488;2023-03-13T08:03:32;14.10;99.90
26537;DHT22;14204;51.262;5.488;2023-03-13T08:05:59;14.10;99.90
26537;DHT22;14204;51.262;5.488;2023-03-13T08:08:26;14.10;99.90
26537;DHT22;14204;51.262;5.488;2023-03-13T08:10:52;14.10;99.90
26537;DHT22;14204;51.262;5.488;2023-03-13T08:13:17;14.20;99.90
26537;DHT22;14204;51.262;5.488;2023-03-13T08:15:43;14.30;99.90
26537;DHT22;14204;51.262;5.488;2023-03-13T08:18:09;14.40;99.90
26537;DHT22;14204;51.262;5.488;2023-03-13T08:20:38;14.50;99.90
26537;DHT22;14204;51.262;5.488;2023-03-13T08:23:03;14.60;99.90
26537;DHT22;14204;51.262;5.488;2023-03-13T08:25:29;14.70;99.90
26537;DHT22;14204;51.262;5.488;2023-03-13T08:27:55;14.70;99.90
26537;DHT22;14204;51.262;5.488;2023-03-13T08:30:20;14.70;99.90
26537;DHT22;14204;51.262;5.488;2023-03-13T08:32:46;14.70;99.90
26537;DHT22;14204;51.262;5.488;2023-03-13T08:35:11;14.70;99.90
26537;DHT22;14204;51.262;5.488;2023-03-13T08:37:37;14.80;99.90
26537;DHT22;14204;51.262;5.488;2023-03-13T08:40:03;14.90;99.90
26537;DHT22;14204;51.262;5.488;2023-03-13T08:42:35;15.00;99.90
26537;DHT22;14204;51.262;5.488;2023-03-13T08:45:01;15.10;99.90
26537;DHT22;14204;51.262;5.488;2023-03-13T08:47:26;15.10;99.90
26537;DHT22;14204;51.262;5.488;2023-03-13T08:49:52;15.20;99.90
26537;DHT22;14204;51.262;5.488;2023-03-13T08:52:19;15.30;99.90
26537;DHT22;14204;51.262;5.488;2023-03-13T08:54:47;15.40;99.90
26537;DHT22;14204;51.262;5.488;2023-03-13T08:57:13;15.40;99.90
26537;DHT22;14204;51.262;5.488;2023-03-13T08:59:39;15.60;99.90
26537;DHT22;14204;51.262;5.488;2023-03-13T09:02:05;15.50;99.90
26537;DHT22;14204;51.262;5.488;2023-03-13T09:04:31;15.60;99.90
26537;DHT22;14204;51.262;5.488;2023-03-13T09:06:56;15.70;99.90
26537;DHT22;14204;51.262;5.488;2023-03-13T09:09:22;15.70;99.90
26537;DHT22;14204;51.262;5.488;2023-03-13T09:11:48;15.80;99.90
26537;DHT22;14204;51.262;5.488;2023-03-13T09:14:14;15.80;99.90
26537;DHT22;14204;51.262;5.488;2023-03-13T09:16:39;15.80;99.90
26537;DHT22;14204;51.262;5.488;2023-03-13T09:19:05;15.90;99.90
26537;DHT22;14204;51.262;5.488;2023-03-13T09:21:33;15.90;99.90
26537;DHT22;14204;51.262;5.488;2023-03-13T09:24:00;15.90;99.90
26537;DHT22;14204;51.262;5.488;2023-03-13T09:26:26;15.90;99.90
26537;DHT22;14204;51.262;5.488;2023-03-13T09:28:53;15.90;99.90
26537;DHT22;14204;51.262;5.488;2023-03-13T09:31:24;15.80;99.90
26537;DHT22;14204;51.262;5.488;2023-03-13T09:33:50;15.90;99.90
26537;DHT22;14204;51.262;5.488;2023-03-13T09:36:16;15.90;99.90
26537;DHT22;14204;51.262;5.488;2023-03-13T09:38:42;16.00;99.90
26537;DHT22;14204;51.262;5.488;2023-03-13T09:41:25;16.10;99.90
26537;DHT22;14204;51.262;5.488;2023-03-13T09:47:08;16.20;99.90
26537;DHT22;14204;51.262;5.488;2023-03-13T09:52:16;16.30;99.90
26537;DHT22;14204;51.262;5.488;2023-03-13T09:55:03;16.30;99.90
26537;DHT22;14204;51.262;5.488;2023-03-13T09:57:34;16.20;99.90
26537;DHT22;14204;51.262;5.488;2023-03-13T10:00:10;16.20;99.90
26537;DHT22;14204;51.262;5.488;2023-03-13T10:02:39;16.40;99.90
26537;DHT22;14204;51.262;5.488;2023-03-13T10:05:15;16.30;99.90
26537;DHT22;14204;51.262;5.488;2023-03-13T10:07:42;16.60;99.90
26537;DHT22;14204;51.262;5.488;2023-03-13T10:10:49;16.60;99.90
26537;DHT22;14204;51.262;5.488;2023-03-13T10:13:21;16.60;99.90
26537;DHT22;14204;51.262;5.488;2023-03-13T10:15:56;16.60;99.90
26537;DHT22;14204;51.262;5.488;2023-03-13T10:18:24;16.90;99.90
26537;DHT22;14204;51.262;5.488;2023-03-13T10:20:53;17.20;99.90
26537;DHT22;14204;51.262;5.488;2023-03-13T10:25:58;17.20;99.90
26537;DHT22;14204;51.262;5.488;2023-03-13T10:28:24;17.30;99.90
26537;DHT22;14204;51.262;5.488;2023-03-13T10:31:17;17.60;99.90
26537;DHT22;14204;51.262;5.488;2023-03-13T10:33:47;17.70;99.90
26537;DHT22;14204;51.262;5.488;2023-03-13T10:36:13;17.60;99.90
26537;DHT22;14204;51.262;5.488;2023-03-13T10:38:48;17.60;99.90
26537;DHT22;14204;51.262;5.488;2023-03-13T10:41:33;17.60;99.90
26537;DHT22;14204;51.262;5.488;2023-03-13T10:44:03;17.50;99.90
26537;DHT22;14204;51.262;5.488;2023-03-13T10:46:35;17.40;99.90
26537;DHT22;14204;51.262;5.488;2023-03-13T10:49:14;17.40;99.90
26537;DHT22;14204;51.262;5.488;2023-03-13T10:51:46;17.40;99.90
26537;DHT22;14204;51.262;5.488;2023-03-13T10:54:20;17.30;99.90
26537;DHT22;14204;51.262;5.488;2023-03-13T10:56:46;17.20;99.90
26537;DHT22;14204;51.262;5.488;2023-03-13T10:59:25;17.30;99.90
26537;DHT22;14204;51.262;5.488;2023-03-13T11:01:53;17.20;99.90
26537;DHT22;14204;51.262;5.488;2023-03-13T11:04:34;17.10;99.90
26537;DHT22;14204;51.262;5.488;2023-03-13T11:10:25;17.10;99.90
26537;DHT22;14204;51.262;5.488;2023-03-13T11:12:54;17.20;99.90
26537;DHT22;14204;51.262;5.488;2023-03-13T11:20:35;17.30;99.90
26537;DHT22;14204;51.262;5.488;2023-03-13T11:25:43;17.30;99.90
26537;DHT22;14204;51.262;5.488;2023-03-13T11:28:26;17.30;99.90
26537;DHT22;14204;51.262;5.488;2023-03-13T11:31:13;17.30;99.90
26537;DHT22;14204;51.262;5.488;2023-03-13T11:34:05;17.40;99.90
26537;DHT22;14204;51.262;5.488;2023-03-13T11:36:59;17.30;99.90
26537;DHT22;14204;51.262;5.488;2023-03-13T11:48:02;17.10;99.90
26537;DHT22;14204;51.262;5.488;2023-03-13T11:58:19;17.20;99.90
26537;DHT22;14204;51.262;5.488;2023-03-13T12:06:35;17.30;99.90
26537;DHT22;14204;51.262;5.488;2023-03-13T12:11:54;17.30;99.90
26537;DHT22;14204;51.262;5.488;2023-03-13T12:14:51;17.30;99.90
26537;DHT22;14204;51.262;5.488;2023-03-13T12:25:36;18.00;99.90
26537;DHT22;14204;51.262;5.488;2023-03-13T12:31:12;17.80;99.90
26537;DHT22;14204;51.262;5.488;2023-03-13T12:33:42;17.80;99.90
26537;DHT22;14204;51.262;5.488;2023-03-13T12:36:29;18.00;99.90
26537;DHT22;14204;51.262;5.488;2023-03-13T12:39:09;18.20;99.90
26537;DHT22;14204;51.262;5.488;2023-03-13T12:41:43;18.30;99.90
26537;DHT22;14204;51.262;5.488;2023-03-13T12:44:18;18.30;99.90
26537;DHT22;14204;51.262;5.488;2023-03-13T12:50:15;18.50;99.90
26537;DHT22;14204;51.262;5.488;2023-03-13T12:58:50;18.00;99.90
26537;DHT22;14204;51.262;5.488;2023-03-13T13:01:28;18.00;99.90
26537;DHT22;14204;51.262;5.488;2023-03-13T13:09:21;18.00;99.90
26537;DHT22;14204;51.262;5.488;2023-03-13T13:11:49;18.00;99.90
26537;DHT22;14204;51.262;5.488;2023-03-13T13:16:47;18.40;99.90
26537;DHT22;14204;51.262;5.488;2023-03-13T13:24:58;18.20;99.90
26537;DHT22;14204;51.262;5.488;2023-03-13T13:27:44;18.20;99.90
26537;DHT22;14204;51.262;5.488;2023-03-13T13:35:43;18.30;99.90
26537;DHT22;14204;51.262;5.488;2023-03-13T13:43:24;18.40;99.90
26537;DHT22;14204;51.262;5.488;2023-03-13T13:48:27;18.30;99.90
26537;DHT22;14204;51.262;5.488;2023-03-13T13:53:46;18.30;99.90
26537;DHT22;14204;51.262;5.488;2023-03-13T14:07:54;18.20;99.90
26537;DHT22;14204;51.262;5.488;2023-03-13T14:10:27;18.00;99.90
26537;DHT22;14204;51.262;5.488;2023-03-13T14:12:55;18.00;99.90
26537;DHT22;14204;51.262;5.488;2023-03-13T14:15:27;18.00;99.90
26537;DHT22;14204;51.262;5.488;2023-03-13T14:18:23;18.00;99.90
26537;DHT22;14204;51.262;5.488;2023-03-13T14:21:03;18.10;99.90
26537;DHT22;14204;51.262;5.488;2023-03-13T14:23:41;18.10;99.90
26537;DHT22;14204;51.262;5.488;2023-03-13T14:26:21;18.10;99.90
26537;DHT22;14204;51.262;5.488;2023-03-13T14:28:51;18.30;99.90
26537;DHT22;14204;51.262;5.488;2023-03-13T14:34:02;18.20;99.90
26537;DHT22;14204;51.262;5.488;2023-03-13T14:36:28;18.10;99.90
26537;DHT22;14204;51.262;5.488;2023-03-13T14:38:58;18.20;99.90
26537;DHT22;14204;51.262;5.488;2023-03-13T14:43:49;18.30;99.90
26537;DHT22;14204;51.262;5.488;2023-03-13T14:48:47;18.10;99.90
26537;DHT22;14204;51.262;5.488;2023-03-13T14:51:24;18.10;99.90
26537;DHT22;14204;51.262;5.488;2023-03-13T14:54:00;18.10;99.90
26537;DHT22;14204;51.262;5.488;2023-03-13T14:56:37;18.00;99.90
26537;DHT22;14204;51.262;5.488;2023-03-13T15:01:38;18.10;99.90
26537;DHT22;14204;51.262;5.488;2023-03-13T15:04:04;17.90;99.90
26537;DHT22;14204;51.262;5.488;2023-03-13T15:06:30;17.90;99.90
26537;DHT22;14204;51.262;5.488;2023-03-13T15:09:15;17.90;99.90
26537;DHT22;14204;51.262;5.488;2023-03-13T15:11:55;18.00;99.90
26537;DHT22;14204;51.262;5.488;2023-03-13T15:14:32;18.10;99.90
26537;DHT22;14204;51.262;5.488;2023-03-13T15:16:58;18.00;99.90
26537;DHT22;14204;51.262;5.488;2023-03-13T15:19:24;18.10;99.90
26537;DHT22;14204;51.262;5.488;2023-03-13T15:21:52;18.00;99.90
26537;DHT22;14204;51.262;5.488;2023-03-13T15:24:19;17.90;99.90
26537;DHT22;14204;51.262;5.488;2023-03-13T15:26:44;17.80;99.90
26537;DHT22;14204;51.262;5.488;2023-03-13T15:29:10;17.80;99.90
26537;DHT22;14204;51.262;5.488;2023-03-13T15:31:36;17.70;99.90
26537;DHT22;14204;51.262;5.488;2023-03-13T15:34:02;17.70;99.90
26537;DHT22;14204;51.262;5.488;2023-03-13T15:36:28;17.70;99.90
26537;DHT22;14204;51.262;5.488;2023-03-13T15:38:54;17.70;99.90
26537;DHT22;14204;51.262;5.488;2023-03-13T15:41:21;17.60;99.90
26537;DHT22;14204;51.262;5.488;2023-03-13T15:43:48;17.60;99.90
26537;DHT22;14204;51.262;5.488;2023-03-13T15:46:18;17.50;99.90
26537;DHT22;14204;51.262;5.488;2023-03-13T15:48:45;17.50;99.90
26537;DHT22;14204;51.262;5.488;2023-03-13T15:51:14;17.50;99.90
26537;DHT22;14204;51.262;5.488;2023-03-13T15:53:41;17.50;99.90
26537;DHT22;14204;51.262;5.488;2023-03-13T15:56:14;17.60;99.90
26537;DHT22;14204;51.262;5.488;2023-03-13T15:58:40;17.50;99.90
26537;DHT22;14204;51.262;5.488;2023-03-13T16:01:09;17.50;99.90
26537;DHT22;14204;51.262;5.488;2023-03-13T16:03:35;17.50;99.90
26537;DHT22;14204;51.262;5.488;2023-03-13T16:06:00;17.50;99.90
26537;DHT22;14204;51.262;5.488;2023-03-13T16:08:27;17.40;99.90
26537;DHT22;14204;51.262;5.488;2023-03-13T16:10:53;17.40;99.90
26537;DHT22;14204;51.262;5.488;2023-03-13T16:13:20;17.30;99.90
26537;DHT22;14204;51.262;5.488;2023-03-13T16:15:46;17.40;99.90
26537;DHT22;14204;51.262;5.488;2023-03-13T16:18:19;17.30;99.90
26537;DHT22;14204;51.262;5.488;2023-03-13T16:20:46;17.40;99.90
26537;DHT22;14204;51.262;5.488;2023-03-13T16:23:11;17.30;99.90
26537;DHT22;14204;51.262;5.488;2023-03-13T16:25:37;17.30;99.90
26537;DHT22;14204;51.262;5.488;2023-03-13T16:28:04;17.20;99.90
26537;DHT22;14204;51.262;5.488;2023-03-13T16:30:33;17.10;99.90
26537;DHT22;14204;51.262;5.488;2023-03-13T16:32:59;17.10;99.90
26537;DHT22;14204;51.262;5.488;2023-03-13T16:35:26;17.10;99.90
26537;DHT22;14204;51.262;5.488;2023-03-13T16:37:56;17.00;99.90
26537;DHT22;14204;51.262;5.488;2023-03-13T16:40:28;17.00;99.90
26537;DHT22;14204;51.262;5.488;2023-03-13T16:42:54;17.00;99.90
26537;DHT22;14204;51.262;5.488;2023-03-13T16:45:20;16.90;99.90
26537;DHT22;14204;51.262;5.488;2023-03-13T16:47:46;17.00;99.90
26537;DHT22;14204;51.262;5.488;2023-03-13T16:50:23;16.90;99.90
26537;DHT22;14204;51.262;5.488;2023-03-13T16:52:50;16.90;99.90
26537;DHT22;14204;51.262;5.488;2023-03-13T16:55:16;16.80;99.90
26537;DHT22;14204;51.262;5.488;2023-03-13T16:57:43;16.70;99.90
26537;DHT22;14204;51.262;5.488;2023-03-13T17:00:21;16.70;99.90
26537;DHT22;14204;51.262;5.488;2023-03-13T17:02:47;16.70;99.90
26537;DHT22;14204;51.262;5.488;2023-03-13T17:05:13;16.70;99.90
26537;DHT22;14204;51.262;5.488;2023-03-13T17:07:45;16.60;99.90
26537;DHT22;14204;51.262;5.488;2023-03-13T17:10:26;16.60;99.90
26537;DHT22;14204;51.262;5.488;2023-03-13T17:12:52;16.60;99.90
26537;DHT22;14204;51.262;5.488;2023-03-13T17:15:18;16.50;99.90
26537;DHT22;14204;51.262;5.488;2023-03-13T17:17:45;16.40;99.90
26537;DHT22;14204;51.262;5.488;2023-03-13T17:20:18;16.40;99.90
26537;DHT22;14204;51.262;5.488;2023-03-13T17:22:44;16.40;99.90
26537;DHT22;14204;51.262;5.488;2023-03-13T17:25:10;16.30;99.90
26537;DHT22;14204;51.262;5.488;2023-03-13T17:27:36;16.30;99.90
26537;DHT22;14204;51.262;5.488;2023-03-13T17:32:39;16.30;99.90
26537;DHT22;14204;51.262;5.488;2023-03-13T17:35:05;16.30;99.90
26537;DHT22;14204;51.262;5.488;2023-03-13T17:37:32;16.30;99.90
26537;DHT22;14204;51.262;5.488;2023-03-13T17:39:58;16.20;99.90